Time;durP1;ratioP1;P1;durP2;ratioP2;P2;SDS_P1;SDS_P2;PMS_P1;PMS_P2;Temp;Humidity;BMP_temperature;BMP_pressure;BME280_temperature;BME280_humidity;BME280_pressure;Samples;Min_cycle;Max_cycle;Signal;HPM_P1;HPM_P2
2023/03/23 00:01:19;;;;;;;8.88;2.75;;;;;;;;;;7364527;19;20311;-80
2023/03/23 00:03:45;;;;;;;8.43;3.08;;;;;;;;;;7352473;19;20031;-80
2023/03/23 00:06:10;;;;;;;8.55;2.95;;;;;;;;;;7355317;19;20080;-81
2023/03/23 00:08:37;;;;;;;8.18;2.30;;;;;;;;;;7363665;19;20009;-81
2023/03/23 00:11:05;;;;;;;5.93;2.45;;;;;;;;;;7360162;19;20164;-80
2023/03/23 00:13:31;;;;;;;8.38;2.75;;;;;;;;;;7365842;19;20511;-80
2023/03/23 00:15:56;;;;;;;8.80;2.65;;;;;;;;;;7364110;19;20706;-81
2023/03/23 00:18:22;;;;;;;9.23;2.60;;;;;;;;;;7366965;19;20006;-81
2023/03/23 00:20:54;;;;;;;6.18;3.00;;;;;;;;;;7366439;19;20001;-80
2023/03/23 00:23:20;;;;;;;8.10;2.35;;;;;;;;;;7370827;19;20009;-80
2023/03/23 00:25:53;;;;;;;6.60;2.38;;;;;;;;;;7366037;19;20014;-80
2023/03/23 00:28:24;;;;;;;9.05;2.75;;;;;;;;;;7362952;19;19995;-80
2023/03/23 00:30:56;;;;;;;8.10;2.85;;;;;;;;;;7361581;19;20006;-80
2023/03/23 00:33:22;;;;;;;6.53;2.25;;;;;;;;;;7366752;19;20005;-80
2023/03/23 00:35:48;;;;;;;5.70;2.20;;;;;;;;;;7360330;19;19990;-80
2023/03/23 00:38:13;;;;;;;6.25;2.40;;;;;;;;;;7369797;19;20022;-81
2023/03/23 00:40:39;;;;;;;10.43;2.70;;;;;;;;;;7367936;19;20022;-80
2023/03/23 00:43:04;;;;;;;5.63;2.53;;;;;;;;;;7366713;19;20018;-79
2023/03/23 00:45:29;;;;;;;7.97;2.53;;;;;;;;;;7360004;19;20255;-79
2023/03/23 00:47:56;;;;;;;6.90;2.40;;;;;;;;;;7363119;19;20003;-79
2023/03/23 00:50:22;;;;;;;6.80;3.10;;;;;;;;;;7362008;19;20006;-80
2023/03/23 00:52:49;;;;;;;6.80;2.45;;;;;;;;;;7363456;19;19999;-79
2023/03/23 00:55:14;;;;;;;6.90;2.80;;;;;;;;;;7362821;19;20007;-79
2023/03/23 00:57:40;;;;;;;7.07;2.70;;;;;;;;;;7368312;19;20358;-79
2023/03/23 01:00:09;;;;;;;6.68;2.65;;;;;;;;;;7368048;19;20034;-79
2023/03/23 01:02:35;;;;;;;5.43;2.47;;;;;;;;;;7376779;19;20133;-79
2023/03/23 01:05:01;;;;;;;9.90;2.92;;;;;;;;;;7359780;19;20482;-79
2023/03/23 01:07:28;;;;;;;8.82;3.10;;;;;;;;;;7368982;19;19995;-79
2023/03/23 01:09:53;;;;;;;6.22;2.60;;;;;;;;;;7364521;19;20003;-79
2023/03/23 01:12:18;;;;;;;10.15;2.83;;;;;;;;;;7368875;19;20295;-79
2023/03/23 01:14:44;;;;;;;9.10;2.83;;;;;;;;;;7364956;19;20014;-79
2023/03/23 01:17:09;;;;;;;9.15;3.03;;;;;;;;;;7366945;19;20027;-79
2023/03/23 01:19:35;;;;;;;8.70;2.85;;;;;;;;;;7366283;19;20031;-79
2023/03/23 01:22:00;;;;;;;6.65;3.00;;;;;;;;;;7367341;19;20077;-79
2023/03/23 01:24:25;;;;;;;7.85;2.95;;;;;;;;;;7365627;19;20039;-79
2023/03/23 01:26:50;;;;;;;5.90;2.90;;;;;;;;;;7368663;19;20010;-78
2023/03/23 01:29:15;;;;;;;8.20;2.65;;;;;;;;;;7366793;19;20354;-79
2023/03/23 01:31:42;;;;;;;7.60;2.60;;;;;;;;;;7366013;19;20274;-79
2023/03/23 01:34:08;;;;;;;6.35;3.15;;;;;;;;;;7366980;19;20255;-80
2023/03/23 01:36:33;;;;;;;6.30;2.90;;;;;;;;;;7362223;19;19998;-79
2023/03/23 01:39:00;;;;;;;6.15;3.13;;;;;;;;;;7366875;19;20125;-79
2023/03/23 01:41:26;;;;;;;7.47;2.75;;;;;;;;;;7367923;19;20006;-80
2023/03/23 01:43:56;;;;;;;9.98;3.47;;;;;;;;;;7363151;19;20019;-79
2023/03/23 01:46:22;;;;;;;8.80;3.40;;;;;;;;;;7374598;19;20007;-79
2023/03/23 01:48:48;;;;;;;9.43;3.63;;;;;;;;;;7357190;19;20226;-79
2023/03/23 01:51:15;;;;;;;11.27;4.00;;;;;;;;;;7374715;19;20027;-79
2023/03/23 01:53:50;;;;;;;8.73;4.10;;;;;;;;;;7373010;19;20391;-79
2023/03/23 01:56:18;;;;;;;9.23;3.72;;;;;;;;;;7373930;19;20010;-79
2023/03/23 01:58:44;;;;;;;9.00;3.78;;;;;;;;;;7373456;19;20021;-79
2023/03/23 02:01:11;;;;;;;6.82;3.67;;;;;;;;;;7375397;19;20440;-79
2023/03/23 02:03:38;;;;;;;9.10;4.10;;;;;;;;;;7368877;19;20013;-80
2023/03/23 02:06:03;;;;;;;9.10;4.10;;;;;;;;;;7369450;19;19999;-80
2023/03/23 02:08:30;;;;;;;11.00;3.83;;;;;;;;;;7375344;19;20515;-81
2023/03/23 02:10:55;;;;;;;8.40;4.03;;;;;;;;;;7369552;19;20011;-79
2023/03/23 02:13:21;;;;;;;9.57;3.85;;;;;;;;;;7371136;19;20561;-81
2023/03/23 02:16:18;;;;;;;10.07;4.45;;;;;;;;;;7367805;19;20007;-80
2023/03/23 02:18:59;;;;;;;8.77;4.05;;;;;;;;;;7368539;19;20607;-80
2023/03/23 02:21:24;;;;;;;9.65;4.20;;;;;;;;;;7375654;19;20014;-80
2023/03/23 02:23:52;;;;;;;8.23;3.88;;;;;;;;;;7374021;19;20022;-80
2023/03/23 02:26:22;;;;;;;7.65;4.38;;;;;;;;;;7371258;19;20058;-80
2023/03/23 02:29:06;;;;;;;9.25;4.10;;;;;;;;;;7370476;19;20080;-80
2023/03/23 02:31:53;;;;;;;8.68;4.03;;;;;;;;;;7373092;19;19998;-80
2023/03/23 02:34:20;;;;;;;8.20;4.47;;;;;;;;;;7370396;19;19995;-81
2023/03/23 02:36:57;;;;;;;9.52;4.82;;;;;;;;;;7373567;19;19995;-80
2023/03/23 02:39:24;;;;;;;8.98;4.22;;;;;;;;;;7373352;19;20002;-81
2023/03/23 02:41:54;;;;;;;7.82;3.80;;;;;;;;;;7373324;19;19995;-80
2023/03/23 02:44:21;;;;;;;10.23;4.07;;;;;;;;;;7370703;19;20463;-80
2023/03/23 02:46:46;;;;;;;10.20;3.90;;;;;;;;;;7371844;19;20408;-80
2023/03/23 02:49:14;;;;;;;8.57;3.88;;;;;;;;;;7352874;19;20082;-78
2023/03/23 02:51:40;;;;;;;7.55;3.55;;;;;;;;;;7304382;19;20230;-80
2023/03/23 02:54:05;;;;;;;8.15;4.13;;;;;;;;;;7305263;19;20006;-80
2023/03/23 02:56:32;;;;;;;8.70;4.45;;;;;;;;;;7310709;19;20502;-80
2023/03/23 02:58:58;;;;;;;8.85;3.80;;;;;;;;;;7309546;19;20361;-80
2023/03/23 03:01:32;;;;;;;8.60;4.22;;;;;;;;;;7308452;19;20011;-80
2023/03/23 03:04:00;;;;;;;8.85;3.60;;;;;;;;;;7305410;19;20015;-81
2023/03/23 03:06:48;;;;;;;7.70;4.00;;;;;;;;;;7305762;19;20696;-80
2023/03/23 03:09:25;;;;;;;7.53;4.25;;;;;;;;;;7310375;19;20002;-80
2023/03/23 03:11:51;;;;;;;10.35;4.38;;;;;;;;;;7308189;19;20006;-80
2023/03/23 03:14:24;;;;;;;9.30;4.57;;;;;;;;;;7307273;19;20002;-81
2023/03/23 03:16:53;;;;;;;11.25;5.20;;;;;;;;;;7311102;19;20167;-78
2023/03/23 03:19:25;;;;;;;9.10;5.13;;;;;;;;;;7307698;19;20303;-79
2023/03/23 03:21:52;;;;;;;10.20;5.70;;;;;;;;;;7303528;19;20702;-79
2023/03/23 03:24:18;;;;;;;9.93;5.45;;;;;;;;;;7310188;19;20033;-79
2023/03/23 03:26:48;;;;;;;10.35;5.68;;;;;;;;;;7300954;19;20067;-78
2023/03/23 03:29:18;;;;;;;10.23;5.78;;;;;;;;;;7299180;19;20006;-77
2023/03/23 03:31:45;;;;;;;8.90;5.28;;;;;;;;;;7308054;19;20373;-80
2023/03/23 03:34:10;;;;;;;11.55;5.82;;;;;;;;;;7303364;19;20165;-81
2023/03/23 03:36:37;;;;;;;9.18;4.85;;;;;;;;;;7310800;19;20050;-79
2023/03/23 03:39:07;;;;;;;11.00;5.30;;;;;;;;;;7310761;19;20095;-80
2023/03/23 03:41:32;;;;;;;11.98;4.90;;;;;;;;;;7312814;19;20239;-80
2023/03/23 03:43:58;;;;;;;9.85;4.93;;;;;;;;;;7306943;19;19999;-79
2023/03/23 03:46:26;;;;;;;10.80;5.30;;;;;;;;;;7308362;19;20132;-79
2023/03/23 03:48:51;;;;;;;10.65;5.10;;;;;;;;;;7319578;19;20661;-79
2023/03/23 03:51:17;;;;;;;10.95;4.53;;;;;;;;;;7371036;19;20300;-79
2023/03/23 03:53:42;;;;;;;7.97;3.80;;;;;;;;;;7370115;19;19999;-78
2023/03/23 03:56:07;;;;;;;10.30;4.50;;;;;;;;;;7370214;19;21087;-80
2023/03/23 03:58:35;;;;;;;11.68;5.05;;;;;;;;;;7367743;19;20255;-80
2023/03/23 04:01:01;;;;;;;7.55;4.22;;;;;;;;;;7367288;19;20251;-80
2023/03/23 04:03:27;;;;;;;8.77;4.38;;;;;;;;;;7367333;19;19995;-79
2023/03/23 04:05:52;;;;;;;8.73;4.45;;;;;;;;;;7366052;19;20006;-79
2023/03/23 04:08:18;;;;;;;8.90;4.60;;;;;;;;;;7364520;19;20003;-79
2023/03/23 04:10:43;;;;;;;10.13;4.40;;;;;;;;;;7372293;19;19999;-80
2023/03/23 04:13:09;;;;;;;8.13;4.10;;;;;;;;;;7358397;19;20005;-79
2023/03/23 04:15:34;;;;;;;9.80;4.70;;;;;;;;;;7367146;19;20767;-80
2023/03/23 04:17:59;;;;;;;10.00;3.92;;;;;;;;;;7368755;19;20312;-79
2023/03/23 04:20:25;;;;;;;8.63;3.90;;;;;;;;;;7369267;19;20676;-80
2023/03/23 04:22:51;;;;;;;7.28;4.00;;;;;;;;;;7370657;19;20103;-80
2023/03/23 04:25:20;;;;;;;7.18;3.63;;;;;;;;;;7364389;19;20099;-79
2023/03/23 04:27:46;;;;;;;7.05;3.95;;;;;;;;;;7359085;19;20019;-80
2023/03/23 04:30:12;;;;;;;6.97;3.75;;;;;;;;;;7368782;19;20091;-79
2023/03/23 04:32:40;;;;;;;7.90;3.92;;;;;;;;;;7370885;19;20002;-80
2023/03/23 04:35:06;;;;;;;9.93;3.97;;;;;;;;;;7352495;19;20551;-80
2023/03/23 04:37:31;;;;;;;8.43;3.75;;;;;;;;;;7367921;19;20399;-81
2023/03/23 04:40:00;;;;;;;6.63;3.33;;;;;;;;;;7369892;19;20117;-81
2023/03/23 04:42:27;;;;;;;7.40;3.60;;;;;;;;;;7366670;19;20069;-81
2023/03/23 04:44:55;;;;;;;6.65;3.08;;;;;;;;;;7367462;19;20003;-81
2023/03/23 04:47:20;;;;;;;9.95;3.20;;;;;;;;;;7371435;19;20035;-80
2023/03/23 04:49:46;;;;;;;9.02;3.47;;;;;;;;;;7361777;19;20331;-80
2023/03/23 04:52:11;;;;;;;8.20;3.28;;;;;;;;;;7368334;19;19995;-81
2023/03/23 04:54:36;;;;;;;7.18;3.33;;;;;;;;;;7368453;19;20374;-80
2023/03/23 04:57:03;;;;;;;7.20;3.08;;;;;;;;;;7364049;19;20009;-81
2023/03/23 04:59:30;;;;;;;9.45;3.38;;;;;;;;;;7368987;19;20095;-81
2023/03/23 05:01:55;;;;;;;7.00;3.45;;;;;;;;;;7367942;19;20719;-81
2023/03/23 05:04:22;;;;;;;9.70;3.80;;;;;;;;;;7364285;19;20011;-81
2023/03/23 05:06:47;;;;;;;8.60;3.25;;;;;;;;;;7366460;19;20058;-80
2023/03/23 05:09:12;;;;;;;10.75;3.42;;;;;;;;;;7361753;19;20657;-81
2023/03/23 05:11:38;;;;;;;9.60;3.30;;;;;;;;;;7369952;19;20122;-80
2023/03/23 05:14:04;;;;;;;10.23;3.40;;;;;;;;;;7364279;19;20005;-80
2023/03/23 05:16:30;;;;;;;9.55;3.70;;;;;;;;;;7367681;19;20298;-80
2023/03/23 05:18:57;;;;;;;7.85;3.45;;;;;;;;;;7361119;19;19998;-80
2023/03/23 05:21:22;;;;;;;8.45;3.65;;;;;;;;;;7369113;19;20009;-81
2023/03/23 05:23:47;;;;;;;7.50;3.10;;;;;;;;;;7364724;19;20371;-81
2023/03/23 05:26:13;;;;;;;8.93;3.78;;;;;;;;;;7369112;19;20267;-81
2023/03/23 05:28:41;;;;;;;9.70;3.55;;;;;;;;;;7369441;19;20306;-81
2023/03/23 05:31:06;;;;;;;8.93;3.30;;;;;;;;;;7357191;19;20003;-81
2023/03/23 05:33:32;;;;;;;11.93;4.28;;;;;;;;;;7365043;19;20002;-81
2023/03/23 05:35:57;;;;;;;11.02;3.60;;;;;;;;;;7368214;19;20003;-80
2023/03/23 05:38:22;;;;;;;9.07;3.27;;;;;;;;;;7368733;19;20282;-80
2023/03/23 05:40:48;;;;;;;9.07;3.25;;;;;;;;;;7364257;19;20250;-81
2023/03/23 05:43:13;;;;;;;9.48;3.72;;;;;;;;;;7364390;19;20514;-80
2023/03/23 05:45:39;;;;;;;8.63;3.50;;;;;;;;;;7371164;19;20066;-81
2023/03/23 05:48:04;;;;;;;10.23;3.25;;;;;;;;;;7369087;19;20613;-81
2023/03/23 05:50:32;;;;;;;8.27;3.38;;;;;;;;;;7368309;19;19995;-81
2023/03/23 05:52:58;;;;;;;12.98;3.88;;;;;;;;;;7370908;19;20034;-81
2023/03/23 05:55:23;;;;;;;10.27;3.30;;;;;;;;;;7369544;19;20427;-81
2023/03/23 05:57:48;;;;;;;8.52;3.20;;;;;;;;;;7368858;19;20355;-81
2023/03/23 06:00:14;;;;;;;6.88;2.88;;;;;;;;;;7363291;19;20006;-81
2023/03/23 06:02:43;;;;;;;9.95;3.30;;;;;;;;;;7365484;19;20424;-80
2023/03/23 06:05:09;;;;;;;13.00;4.05;;;;;;;;;;7367126;19;20013;-80
2023/03/23 06:07:35;;;;;;;7.85;2.97;;;;;;;;;;7370102;19;20003;-81
2023/03/23 06:10:00;;;;;;;6.95;3.17;;;;;;;;;;7370722;19;20454;-81
2023/03/23 06:12:26;;;;;;;8.15;3.05;;;;;;;;;;7366520;19;19994;-81
2023/03/23 06:14:51;;;;;;;9.35;3.00;;;;;;;;;;7369824;19;20008;-80
2023/03/23 06:17:17;;;;;;;7.78;2.67;;;;;;;;;;7359246;19;20436;-81
2023/03/23 06:19:42;;;;;;;9.13;3.33;;;;;;;;;;7364620;19;20007;-81
2023/03/23 06:22:07;;;;;;;6.82;2.47;;;;;;;;;;7358015;19;20493;-81
2023/03/23 06:24:32;;;;;;;6.00;2.50;;;;;;;;;;7367884;19;20050;-81
2023/03/23 06:26:59;;;;;;;7.68;2.55;;;;;;;;;;7367291;19;20759;-81
2023/03/23 06:29:24;;;;;;;8.07;2.88;;;;;;;;;;7360440;19;20861;-81
2023/03/23 06:31:54;;;;;;;7.40;2.57;;;;;;;;;;7373506;19;20002;-81
2023/03/23 06:34:19;;;;;;;5.78;2.70;;;;;;;;;;7371421;19;20646;-81
2023/03/23 06:36:44;;;;;;;12.30;3.30;;;;;;;;;;7366920;19;20026;-81
2023/03/23 06:39:10;;;;;;;6.68;2.40;;;;;;;;;;7368181;19;20423;-81
2023/03/23 06:41:35;;;;;;;6.45;3.00;;;;;;;;;;7364022;19;20381;-80
2023/03/23 06:44:00;;;;;;;8.60;2.72;;;;;;;;;;7339416;19;20007;-80
2023/03/23 06:46:26;;;;;;;9.23;2.58;;;;;;;;;;7368252;19;19998;-80
2023/03/23 06:48:51;;;;;;;5.90;2.60;;;;;;;;;;7358062;19;20086;-80
2023/03/23 06:51:17;;;;;;;5.30;2.50;;;;;;;;;;7364676;19;20007;-80
2023/03/23 06:53:42;;;;;;;6.72;2.45;;;;;;;;;;7369628;19;20003;-80
2023/03/23 06:56:07;;;;;;;6.60;2.78;;;;;;;;;;7355320;19;20531;-79
2023/03/23 06:58:33;;;;;;;7.18;2.10;;;;;;;;;;7369980;19;20115;-80
2023/03/23 07:00:58;;;;;;;5.30;2.38;;;;;;;;;;7364999;19;20003;-84
2023/03/23 07:03:23;;;;;;;5.77;2.30;;;;;;;;;;7362985;19;20010;-85
2023/03/23 07:05:48;;;;;;;7.00;2.28;;;;;;;;;;7353458;19;20254;-79
2023/03/23 07:08:14;;;;;;;8.27;2.60;;;;;;;;;;7362134;19;20075;-83
2023/03/23 07:10:39;;;;;;;5.85;2.15;;;;;;;;;;7348016;19;20129;-78
2023/03/23 07:13:04;;;;;;;4.85;2.20;;;;;;;;;;7359709;19;20094;-80
2023/03/23 07:15:32;;;;;;;8.55;2.58;;;;;;;;;;7371061;19;20006;-81
2023/03/23 07:17:58;;;;;;;10.82;2.90;;;;;;;;;;7375889;19;19995;-81
2023/03/23 07:20:23;;;;;;;7.53;2.50;;;;;;;;;;7370600;19;20116;-81
2023/03/23 07:22:49;;;;;;;9.23;2.15;;;;;;;;;;7375185;19;20376;-81
2023/03/23 07:25:14;;;;;;;7.65;2.30;;;;;;;;;;7372520;19;20479;-81
2023/03/23 07:27:39;;;;;;;9.48;2.22;;;;;;;;;;7376050;19;20099;-81
2023/03/23 07:30:05;;;;;;;4.63;2.13;;;;;;;;;;7376809;19;20446;-81
2023/03/23 07:32:30;;;;;;;9.80;2.25;;;;;;;;;;7374203;19;20576;-81
2023/03/23 07:34:56;;;;;;;7.68;2.10;;;;;;;;;;7374415;19;20527;-80
2023/03/23 07:37:22;;;;;;;6.53;1.90;;;;;;;;;;7375916;19;20031;-81
2023/03/23 07:39:47;;;;;;;6.15;1.95;;;;;;;;;;7378288;19;20135;-81
2023/03/23 07:42:12;;;;;;;7.73;2.00;;;;;;;;;;7358975;19;20029;-81
2023/03/23 07:44:38;;;;;;;8.00;2.38;;;;;;;;;;7375189;19;20575;-81
2023/03/23 07:47:03;;;;;;;5.00;1.90;;;;;;;;;;7376542;19;20008;-81
2023/03/23 07:49:30;;;;;;;6.80;2.33;;;;;;;;;;7364696;19;20253;-81
2023/03/23 07:51:55;;;;;;;7.28;2.17;;;;;;;;;;7373997;19;20384;-80
2023/03/23 07:54:20;;;;;;;5.90;2.10;;;;;;;;;;7374196;19;20071;-81
2023/03/23 07:56:46;;;;;;;5.43;1.83;;;;;;;;;;7375403;19;20356;-81
2023/03/23 07:59:12;;;;;;;6.68;2.33;;;;;;;;;;7374972;19;20227;-81
2023/03/23 08:01:38;;;;;;;4.82;1.98;;;;;;;;;;7377648;19;20745;-81
2023/03/23 08:04:03;;;;;;;4.35;1.60;;;;;;;;;;7383566;19;20484;-81
2023/03/23 08:06:31;;;;;;;4.25;1.58;;;;;;;;;;7381817;19;20002;-81
2023/03/23 08:08:56;;;;;;;5.03;1.92;;;;;;;;;;7376736;19;20047;-81
2023/03/23 08:11:22;;;;;;;5.80;1.90;;;;;;;;;;7375455;19;20501;-81
2023/03/23 08:13:47;;;;;;;7.97;1.92;;;;;;;;;;7371699;19;20528;-81
2023/03/23 08:16:13;;;;;;;6.90;1.75;;;;;;;;;;7374429;19;19999;-81
2023/03/23 08:18:39;;;;;;;9.20;2.20;;;;;;;;;;7373722;19;20021;-80
2023/03/23 08:21:05;;;;;;;4.88;1.70;;;;;;;;;;7375076;19;20021;-81
2023/03/23 08:23:31;;;;;;;6.88;1.63;;;;;;;;;;7374943;19;20006;-80
2023/03/23 08:25:56;;;;;;;5.40;1.98;;;;;;;;;;7374830;19;20458;-80
2023/03/23 08:28:21;;;;;;;5.70;1.92;;;;;;;;;;7371052;19;19994;-81
2023/03/23 08:30:46;;;;;;;8.98;1.80;;;;;;;;;;7371836;19;20005;-81
2023/03/23 08:33:14;;;;;;;6.27;2.00;;;;;;;;;;7371933;19;19999;-80
2023/03/23 08:35:39;;;;;;;7.05;1.70;;;;;;;;;;7370918;19;20235;-81
2023/03/23 08:38:04;;;;;;;7.80;1.75;;;;;;;;;;7373991;19;20451;-80
2023/03/23 08:40:32;;;;;;;6.00;1.98;;;;;;;;;;7371388;19;19998;-81
2023/03/23 08:42:58;;;;;;;4.32;1.63;;;;;;;;;;7363126;19;19999;-80
2023/03/23 08:45:24;;;;;;;6.90;1.75;;;;;;;;;;7367428;19;20008;-81
2023/03/23 08:47:51;;;;;;;6.55;1.80;;;;;;;;;;7371524;19;20022;-81
2023/03/23 08:50:18;;;;;;;5.70;1.80;;;;;;;;;;7365270;19;20392;-81
2023/03/23 08:52:43;;;;;;;5.80;1.70;;;;;;;;;;7373252;19;20099;-80
2023/03/23 08:55:09;;;;;;;5.43;1.88;;;;;;;;;;7374758;19;20019;-81
2023/03/23 08:57:35;;;;;;;5.70;1.60;;;;;;;;;;7373007;19;20015;-81
2023/03/23 09:00:13;;;;;;;7.80;1.63;;;;;;;;;;7371294;19;20002;-81
2023/03/23 09:02:38;;;;;;;6.13;1.83;;;;;;;;;;7368539;19;20011;-81
2023/03/23 09:05:04;;;;;;;8.50;2.30;;;;;;;;;;7368829;19;20011;-81
2023/03/23 09:07:29;;;;;;;5.93;1.90;;;;;;;;;;7371458;19;20021;-81
2023/03/23 09:09:55;;;;;;;6.95;1.75;;;;;;;;;;7369700;19;20079;-81
2023/03/23 09:12:20;;;;;;;5.03;1.75;;;;;;;;;;7369252;19;20020;-80
2023/03/23 09:14:45;;;;;;;5.60;1.70;;;;;;;;;;7367573;19;20018;-80
2023/03/23 09:17:11;;;;;;;5.82;2.00;;;;;;;;;;7371701;19;20553;-81
2023/03/23 09:19:36;;;;;;;6.03;1.60;;;;;;;;;;7368151;19;20043;-80
2023/03/23 09:22:01;;;;;;;6.10;2.03;;;;;;;;;;7370464;19;20756;-81
2023/03/23 09:24:26;;;;;;;5.70;1.92;;;;;;;;;;7370160;19;20411;-81
2023/03/23 09:26:52;;;;;;;5.22;1.88;;;;;;;;;;7359408;19;20349;-81
2023/03/23 09:29:18;;;;;;;5.68;1.70;;;;;;;;;;7369379;19;20015;-81
2023/03/23 09:31:46;;;;;;;6.68;1.60;;;;;;;;;;7368387;19;20078;-81
2023/03/23 09:34:11;;;;;;;4.40;1.60;;;;;;;;;;7368538;19;20432;-82
2023/03/23 09:36:38;;;;;;;5.20;1.52;;;;;;;;;;7366089;19;20013;-81
2023/03/23 09:39:07;;;;;;;4.82;1.63;;;;;;;;;;7371890;19;19998;-81
2023/03/23 09:41:53;;;;;;;6.00;1.73;;;;;;;;;;7370284;19;20049;-80
2023/03/23 09:44:30;;;;;;;4.10;1.60;;;;;;;;;;7366308;19;20005;-80
2023/03/23 09:47:04;;;;;;;4.50;1.45;;;;;;;;;;7370275;19;20080;-81
2023/03/23 09:49:35;;;;;;;5.22;1.65;;;;;;;;;;7356402;19;20440;-81
2023/03/23 09:52:03;;;;;;;4.75;1.25;;;;;;;;;;7370578;19;20037;-81
2023/03/23 09:54:36;;;;;;;4.15;1.40;;;;;;;;;;7368408;19;20371;-81
2023/03/23 09:57:02;;;;;;;2.93;1.30;;;;;;;;;;7371861;19;20023;-80
2023/03/23 09:59:35;;;;;;;6.80;2.08;;;;;;;;;;7369564;19;20014;-81
2023/03/23 10:02:18;;;;;;;8.35;1.67;;;;;;;;;;7370334;19;20102;-81
2023/03/23 10:04:46;;;;;;;5.45;1.52;;;;;;;;;;7367640;19;20447;-81
2023/03/23 10:07:13;;;;;;;5.00;1.73;;;;;;;;;;7369893;19;20212;-80
2023/03/23 10:09:39;;;;;;;4.65;1.50;;;;;;;;;;7367836;19;20026;-80
2023/03/23 10:12:11;;;;;;;5.65;1.70;;;;;;;;;;7373240;19;19995;-80
2023/03/23 10:14:51;;;;;;;4.53;1.60;;;;;;;;;;7372005;19;20005;-79
2023/03/23 10:17:19;;;;;;;6.40;1.65;;;;;;;;;;7375696;19;19999;-79
2023/03/23 10:19:53;;;;;;;4.82;1.67;;;;;;;;;;7367337;19;20002;-80
2023/03/23 10:22:24;;;;;;;4.13;1.45;;;;;;;;;;7373621;19;20079;-80
2023/03/23 10:24:52;;;;;;;5.05;1.75;;;;;;;;;;7374604;19;20011;-80
2023/03/23 10:27:26;;;;;;;6.85;1.67;;;;;;;;;;7371956;19;20435;-80
2023/03/23 10:30:14;;;;;;;5.60;1.45;;;;;;;;;;7361914;19;20054;-81
2023/03/23 10:32:49;;;;;;;6.28;2.28;;;;;;;;;;7371363;19;20078;-81
2023/03/23 10:35:17;;;;;;;5.00;1.83;;;;;;;;;;7374067;19;20107;-80
2023/03/23 10:37:46;;;;;;;4.50;1.50;;;;;;;;;;7374236;19;20006;-80
2023/03/23 10:40:23;;;;;;;6.82;2.00;;;;;;;;;;7377520;19;20025;-81
2023/03/23 10:42:49;;;;;;;7.13;1.70;;;;;;;;;;7370739;19;20119;-79
2023/03/23 10:45:25;;;;;;;4.45;1.40;;;;;;;;;;7377646;19;20411;-81
2023/03/23 10:47:58;;;;;;;4.82;1.40;;;;;;;;;;7376500;19;20002;-80
2023/03/23 10:50:29;;;;;;;3.47;1.23;;;;;;;;;;7360013;19;20219;-80
2023/03/23 10:52:57;;;;;;;7.40;1.50;;;;;;;;;;7376255;19;20136;-80
2023/03/23 10:55:23;;;;;;;5.80;1.58;;;;;;;;;;7374647;19;20001;-81
2023/03/23 10:58:05;;;;;;;5.80;1.50;;;;;;;;;;7377430;19;20038;-80
2023/03/23 11:00:30;;;;;;;3.92;1.58;;;;;;;;;;7374641;19;19998;-81
2023/03/23 11:02:58;;;;;;;8.45;1.90;;;;;;;;;;7375616;19;19995;-81
2023/03/23 11:05:27;;;;;;;6.30;1.55;;;;;;;;;;7370906;19;19999;-81
2023/03/23 11:07:54;;;;;;;6.43;1.90;;;;;;;;;;7374486;19;20010;-81
2023/03/23 11:10:24;;;;;;;8.75;1.80;;;;;;;;;;7377286;19;20129;-80
2023/03/23 11:12:50;;;;;;;6.43;1.60;;;;;;;;;;7376567;19;20133;-81
2023/03/23 11:15:27;;;;;;;7.32;2.03;;;;;;;;;;7374993;19;20455;-81
2023/03/23 11:17:56;;;;;;;5.65;1.67;;;;;;;;;;7374623;19;20358;-80
2023/03/23 11:20:22;;;;;;;6.07;1.60;;;;;;;;;;7370572;19;20108;-81
2023/03/23 11:22:47;;;;;;;8.10;2.05;;;;;;;;;;7376127;19;20018;-80
2023/03/23 11:25:13;;;;;;;5.40;1.42;;;;;;;;;;7376605;19;20006;-81
2023/03/23 11:27:38;;;;;;;5.55;1.35;;;;;;;;;;7372962;19;20729;-81
2023/03/23 11:30:11;;;;;;;7.28;1.80;;;;;;;;;;7374567;19;20020;-81
2023/03/23 11:32:37;;;;;;;6.73;1.97;;;;;;;;;;7370926;19;20005;-80
2023/03/23 11:35:04;;;;;;;11.30;1.83;;;;;;;;;;7372716;19;20617;-81
2023/03/23 11:37:32;;;;;;;7.68;1.70;;;;;;;;;;7374448;19;20014;-82
2023/03/23 11:40:10;;;;;;;7.97;1.92;;;;;;;;;;7375110;19;20674;-81
2023/03/23 11:42:38;;;;;;;10.10;2.15;;;;;;;;;;7369239;19;20033;-81
2023/03/23 11:45:13;;;;;;;6.80;2.00;;;;;;;;;;7373610;19;20321;-81
2023/03/23 11:47:49;;;;;;;7.60;2.00;;;;;;;;;;7372801;19;20493;-81
2023/03/23 11:50:17;;;;;;;6.50;1.80;;;;;;;;;;7370189;19;20003;-80
2023/03/23 11:53:04;;;;;;;7.70;1.67;;;;;;;;;;7372556;19;20015;-81
2023/03/23 11:55:37;;;;;;;6.28;1.98;;;;;;;;;;7372414;19;20130;-81
2023/03/23 11:58:07;;;;;;;7.40;2.05;;;;;;;;;;7360555;19;20018;-81
2023/03/23 12:00:32;;;;;;;6.30;2.00;;;;;;;;;;7373354;19;20002;-81
2023/03/23 12:03:01;;;;;;;7.28;1.80;;;;;;;;;;7364351;19;20001;-81
2023/03/23 12:05:32;;;;;;;7.72;1.80;;;;;;;;;;7365060;19;20331;-83
2023/03/23 12:08:09;;;;;;;8.30;1.98;;;;;;;;;;7372203;19;20078;-81
2023/03/23 12:10:41;;;;;;;7.55;1.75;;;;;;;;;;7369671;19;20011;-81
2023/03/23 12:13:17;;;;;;;7.38;2.00;;;;;;;;;;7371969;19;20074;-81
2023/03/23 12:15:42;;;;;;;9.13;2.15;;;;;;;;;;7370477;19;20013;-81
2023/03/23 12:18:28;;;;;;;7.93;1.88;;;;;;;;;;7374361;19;19994;-80
2023/03/23 12:21:05;;;;;;;7.20;1.65;;;;;;;;;;7370294;19;20003;-80
2023/03/23 12:23:37;;;;;;;10.23;2.33;;;;;;;;;;7372000;19;20349;-81
2023/03/23 12:26:18;;;;;;;7.30;1.80;;;;;;;;;;7365361;19;20498;-81
2023/03/23 12:28:43;;;;;;;7.60;2.13;;;;;;;;;;7360927;19;20021;-82
2023/03/23 12:31:27;;;;;;;7.00;2.30;;;;;;;;;;7367925;19;19995;-81
2023/03/23 12:33:52;;;;;;;7.85;1.92;;;;;;;;;;7367318;19;20003;-82
2023/03/23 12:36:36;;;;;;;5.93;1.83;;;;;;;;;;7369838;19;19987;-80
2023/03/23 12:39:03;;;;;;;4.82;1.80;;;;;;;;;;7370479;19;20326;-81
2023/03/23 12:41:47;;;;;;;5.18;1.70;;;;;;;;;;7370239;19;19999;-81
2023/03/23 12:44:14;;;;;;;6.22;1.80;;;;;;;;;;7365291;19;20301;-81
2023/03/23 12:46:39;;;;;;;6.07;1.70;;;;;;;;;;7370066;19;20082;-81
2023/03/23 12:49:19;;;;;;;8.00;2.13;;;;;;;;;;7367760;19;20872;-81
2023/03/23 12:52:04;;;;;;;6.82;1.85;;;;;;;;;;7368805;19;20004;-81
2023/03/23 12:54:32;;;;;;;5.03;1.85;;;;;;;;;;7373420;19;20006;-81
2023/03/23 12:57:01;;;;;;;14.55;2.45;;;;;;;;;;7371108;19;19999;-81
2023/03/23 12:59:35;;;;;;;7.50;1.67;;;;;;;;;;7369940;19;20077;-80
2023/03/23 13:02:00;;;;;;;;;;;;;;;;;;7369984;19;20114;-81
2023/03/23 13:04:28;;;;;;;5.97;1.65;;;;;;;;;;7366171;19;19999;-81
2023/03/23 13:06:53;;;;;;;8.25;1.90;;;;;;;;;;7368632;19;20408;-81
2023/03/23 13:09:27;;;;;;;7.05;1.90;;;;;;;;;;7368917;19;20017;-80
2023/03/23 13:11:53;;;;;;;5.28;1.65;;;;;;;;;;7369049;19;20360;-81
2023/03/23 13:14:20;;;;;;;7.97;2.50;;;;;;;;;;7372783;19;20557;-81
2023/03/23 13:16:45;;;;;;;7.85;1.90;;;;;;;;;;7368887;19;20032;-81
2023/03/23 13:19:13;;;;;;;5.97;1.98;;;;;;;;;;7368823;19;20432;-80
2023/03/23 13:21:59;;;;;;;9.80;2.58;;;;;;;;;;7369421;19;19999;-81
2023/03/23 13:24:27;;;;;;;7.75;1.75;;;;;;;;;;7362936;19;19998;-79
2023/03/23 13:26:57;;;;;;;6.03;1.60;;;;;;;;;;7366469;19;20247;-79
2023/03/23 13:29:27;;;;;;;9.98;2.30;;;;;;;;;;7365545;19;20007;-79
2023/03/23 13:32:04;;;;;;;6.28;1.83;;;;;;;;;;7364441;19;19998;-79
2023/03/23 13:34:30;;;;;;;6.43;1.67;;;;;;;;;;7367033;19;20010;-80
2023/03/23 13:37:08;;;;;;;8.70;1.92;;;;;;;;;;7366644;19;20022;-79
2023/03/23 13:39:37;;;;;;;6.45;1.60;;;;;;;;;;7370667;19;20299;-80
2023/03/23 13:42:19;;;;;;;6.95;2.17;;;;;;;;;;7373073;19;20064;-79
2023/03/23 13:44:50;;;;;;;5.43;1.60;;;;;;;;;;7374900;19;20588;-79
2023/03/23 13:47:25;;;;;;;6.97;1.90;;;;;;;;;;7375761;19;20006;-78
2023/03/23 13:49:51;;;;;;;5.80;1.70;;;;;;;;;;7368493;19;20007;-78
2023/03/23 13:52:17;;;;;;;6.15;2.28;;;;;;;;;;7377655;19;20039;-79
2023/03/23 13:54:43;;;;;;;7.22;1.80;;;;;;;;;;7371475;19;20372;-79
2023/03/23 13:57:20;;;;;;;7.45;2.13;;;;;;;;;;7375003;19;20047;-79
2023/03/23 13:59:47;;;;;;;7.82;1.95;;;;;;;;;;7375456;19;20009;-79
2023/03/23 14:02:30;;;;;;;8.48;2.08;;;;;;;;;;7374427;19;20095;-79
2023/03/23 14:04:56;;;;;;;7.00;1.80;;;;;;;;;;7371768;19;20001;-80
2023/03/23 14:07:24;;;;;;;8.15;2.30;;;;;;;;;;7374271;19;20002;-79
2023/03/23 14:09:49;;;;;;;9.88;1.75;;;;;;;;;;7374296;19;20003;-80
2023/03/23 14:12:17;;;;;;;11.13;2.83;;;;;;;;;;7376599;19;20009;-79
2023/03/23 14:14:45;;;;;;;5.72;1.75;;;;;;;;;;7372722;19;20104;-79
2023/03/23 14:17:14;;;;;;;9.38;2.20;;;;;;;;;;7376654;19;20099;-79
2023/03/23 14:19:41;;;;;;;6.18;2.17;;;;;;;;;;7363571;19;20412;-79
2023/03/23 14:22:16;;;;;;;7.30;2.08;;;;;;;;;;7374772;19;19995;-79
2023/03/23 14:24:41;;;;;;;10.85;2.75;;;;;;;;;;7374954;19;20296;-80
2023/03/23 14:27:15;;;;;;;8.27;2.22;;;;;;;;;;7375051;19;20038;-79
2023/03/23 14:29:40;;;;;;;11.13;2.15;;;;;;;;;;7372249;19;20003;-79
2023/03/23 14:32:07;;;;;;;10.57;2.05;;;;;;;;;;7373591;19;20316;-79
2023/03/23 14:34:33;;;;;;;7.53;2.17;;;;;;;;;;7371142;19;20002;-79
2023/03/23 14:36:58;;;;;;;9.13;2.53;;;;;;;;;;7375710;19;20006;-79
2023/03/23 14:39:26;;;;;;;8.73;2.28;;;;;;;;;;7376549;19;20022;-80
2023/03/23 14:41:52;;;;;;;8.35;2.58;;;;;;;;;;7371918;19;20074;-79
2023/03/23 14:44:23;;;;;;;7.22;2.03;;;;;;;;;;7373072;19;20085;-79
2023/03/23 14:46:48;;;;;;;7.97;1.85;;;;;;;;;;7372178;19;20013;-79